Northfield, Wisconsin
Current Conditions -  °F | °C
As of 5:55 PM on Saturday 25 Oct 2014 (Local Time) from KBCK Reporting Station
Clear Clear  
Wind Chill: 60°   Ceiling: Unl
Heat Index: 60°   Visibility: 10mi
Dew Point: 24°   Wind: 10mph
Humidity: 25%   Direction: 280°W
Pressure: 29.97"   Gusts: NA
Location:  44.4032°N, 91.0577°W
Report Text: KBCK 252255Z AUTO 28009KT 10SM CLR 15/M04 A2997 RMK AO2 T01531045
Loading
Personal Weather Stations






























Interactive Weather Map
Tropical Storm Tracking
New forecast layout! Learn more

10-Day Weather Forecast

Advertisements
Track Severe Weather on mobile